createdAt,value
2022-10-28T00:00:35.415Z,16.20
2022-10-28T00:04:38.216Z,16.20
2022-10-28T00:08:41.598Z,16.10
2022-10-28T00:12:44.369Z,16.10
2022-10-28T00:16:47.150Z,16.10
2022-10-28T00:20:49.885Z,16.10
2022-10-28T00:24:53.652Z,16.10
2022-10-28T00:28:59.997Z,16.00
2022-10-28T00:33:02.926Z,16.00
2022-10-28T00:37:05.658Z,15.90
2022-10-28T00:41:10.065Z,15.80
2022-10-28T00:45:12.992Z,15.70
2022-10-28T00:49:22.277Z,15.70
2022-10-28T00:53:28.943Z,15.70
2022-10-28T00:57:36.067Z,15.80
2022-10-28T01:01:38.937Z,15.70
2022-10-28T01:05:45.072Z,15.70
2022-10-28T01:09:48.222Z,15.70
2022-10-28T01:14:07.604Z,15.60
2022-10-28T01:18:37.078Z,15.70
2022-10-28T01:22:47.192Z,15.70
2022-10-28T01:26:52.859Z,15.70
2022-10-28T01:31:14.682Z,15.70
2022-10-28T01:35:36.080Z,15.70
2022-10-28T01:39:59.510Z,15.80
2022-10-28T01:44:14.370Z,15.80
2022-10-28T01:48:21.346Z,15.80
2022-10-28T01:52:27.807Z,15.70
2022-10-28T01:56:37.962Z,15.70
2022-10-28T02:00:43.158Z,15.70
2022-10-28T02:04:48.005Z,15.60
2022-10-28T02:08:56.579Z,15.50
2022-10-28T02:13:02.890Z,15.50
2022-10-28T02:17:21.229Z,15.50
2022-10-28T02:21:48.184Z,15.50
2022-10-28T02:26:02.733Z,15.50
2022-10-28T02:30:17.395Z,15.50
2022-10-28T02:34:27.626Z,15.50
2022-10-28T02:38:49.043Z,15.40
2022-10-28T02:42:59.459Z,15.30
2022-10-28T02:47:09.869Z,15.30
2022-10-28T02:51:29.039Z,15.30
2022-10-28T02:55:40.128Z,15.30
2022-10-28T02:59:47.773Z,15.30
2022-10-28T03:03:55.038Z,15.30
2022-10-28T03:07:58.192Z,15.30
2022-10-28T03:12:01.140Z,15.30
2022-10-28T03:16:04.124Z,15.20
2022-10-28T03:20:07.552Z,15.20
2022-10-28T03:24:10.319Z,15.20
2022-10-28T03:28:16.443Z,15.10
2022-10-28T03:32:19.388Z,15.00
2022-10-28T03:36:22.427Z,15.00
2022-10-28T03:40:25.345Z,15.00
2022-10-28T03:44:30.711Z,14.90
2022-10-28T03:48:33.676Z,14.90
2022-10-28T03:52:36.568Z,14.80
2022-10-28T03:56:43.786Z,14.80
2022-10-28T04:00:52.052Z,14.70
2022-10-28T04:04:55.325Z,14.70
2022-10-28T04:08:58.301Z,14.70
2022-10-28T04:13:02.294Z,14.60
2022-10-28T04:17:05.180Z,14.60
2022-10-28T04:21:07.977Z,14.60
2022-10-28T04:25:10.984Z,14.60
2022-10-28T04:29:14.573Z,14.60
2022-10-28T04:33:18.002Z,14.60
2022-10-28T04:37:20.824Z,14.60
2022-10-28T04:41:23.625Z,14.50
2022-10-28T04:45:28.921Z,14.40
2022-10-28T04:49:35.418Z,14.40
2022-10-28T04:53:41.220Z,14.40
2022-10-28T04:57:44.382Z,14.40
2022-10-28T05:01:47.337Z,14.40
2022-10-28T05:05:50.232Z,14.40
2022-10-28T05:09:53.003Z,14.40
2022-10-28T05:13:55.967Z,14.40
2022-10-28T05:17:58.965Z,14.30
2022-10-28T05:22:01.709Z,14.40
2022-10-28T05:26:04.783Z,14.40
2022-10-28T05:30:08.308Z,14.30
2022-10-28T05:34:14.286Z,14.30
2022-10-28T05:38:17.225Z,14.30
2022-10-28T05:42:20.055Z,14.20
2022-10-28T05:46:22.981Z,14.10
2022-10-28T05:50:25.868Z,14.10
2022-10-28T05:54:28.680Z,14.10
2022-10-28T05:58:34.617Z,14.10
2022-10-28T06:02:37.520Z,14.00
2022-10-28T06:06:40.554Z,14.00
2022-10-28T06:10:49.530Z,14.00
2022-10-28T06:14:52.355Z,14.00
2022-10-28T06:18:55.877Z,14.00
2022-10-28T06:22:58.924Z,14.00
2022-10-28T06:27:02.130Z,14.00
2022-10-28T06:31:07.680Z,14.10
2022-10-28T06:35:10.691Z,14.20
2022-10-28T06:39:13.600Z,14.20
2022-10-28T06:43:16.406Z,14.20
2022-10-28T06:47:21.201Z,14.20
2022-10-28T06:51:24.393Z,14.10
2022-10-28T06:55:27.938Z,14.20
2022-10-28T06:59:30.694Z,14.40
2022-10-28T07:03:33.457Z,14.50
2022-10-28T07:07:39.449Z,14.80
2022-10-28T07:11:45.472Z,15.00
2022-10-28T07:15:56.307Z,15.30
2022-10-28T07:19:59.138Z,15.40
2022-10-28T07:24:03.083Z,15.50
2022-10-28T07:28:06.245Z,15.60
2022-10-28T07:32:09.030Z,15.80
2022-10-28T07:36:12.160Z,16.00
2022-10-28T07:40:15.140Z,16.00
2022-10-28T07:44:17.849Z,16.10
2022-10-28T07:48:20.568Z,16.20
2022-10-28T07:52:23.503Z,16.50
2022-10-28T07:56:26.703Z,16.70
2022-10-28T08:00:29.451Z,16.90
2022-10-28T08:04:33.893Z,17.20
2022-10-28T08:08:37.672Z,17.50
2022-10-28T08:12:41.039Z,17.50
2022-10-28T08:16:43.780Z,17.70
2022-10-28T08:20:46.695Z,17.70
2022-10-28T08:24:49.577Z,18.10
2022-10-28T08:28:53.231Z,18.40
2022-10-28T08:32:56.474Z,18.50
2022-10-28T08:36:59.670Z,18.60
2022-10-28T08:41:25.370Z,18.80
2022-10-28T08:45:54.532Z,19.00
2022-10-28T08:50:03.662Z,19.10
2022-10-28T08:54:17.216Z,19.30
2022-10-28T08:58:25.479Z,19.60
2022-10-28T09:02:36.223Z,19.70
2022-10-28T09:06:39.009Z,19.90
2022-10-28T09:10:47.875Z,20.10
2022-10-28T09:14:53.429Z,20.30
2022-10-28T09:18:58.598Z,20.40
2022-10-28T09:23:17.388Z,20.60
2022-10-28T09:27:57.906Z,20.90
2022-10-28T09:32:13.750Z,21.30
2022-10-28T09:36:25.011Z,21.50
2022-10-28T09:40:31.089Z,21.50
2022-10-28T09:44:40.328Z,21.70
2022-10-28T09:48:55.798Z,21.80
2022-10-28T09:53:04.258Z,22.00
2022-10-28T09:57:07.352Z,22.20
2022-10-28T10:01:10.167Z,22.50
2022-10-28T10:05:16.986Z,22.60
2022-10-28T10:09:26.776Z,22.80
2022-10-28T10:13:35.261Z,22.80
2022-10-28T10:17:43.013Z,22.90
2022-10-28T10:21:54.307Z,22.90
2022-10-28T10:26:11.117Z,23.10
2022-10-28T10:30:22.274Z,23.30
2022-10-28T10:34:27.362Z,23.50
2022-10-28T10:38:31.434Z,23.60
2022-10-28T10:42:39.243Z,23.60
2022-10-28T10:46:55.573Z,23.80
2022-10-28T10:50:59.023Z,24.00
2022-10-28T10:55:06.937Z,24.00
2022-10-28T10:59:37.703Z,24.20
2022-10-28T11:04:14.113Z,24.40
2022-10-28T11:08:34.209Z,24.40
2022-10-28T11:12:37.517Z,24.60
2022-10-28T11:16:52.414Z,24.90
2022-10-28T11:21:01.038Z,25.00
2022-10-28T11:25:22.830Z,25.30
2022-10-28T11:29:25.856Z,25.50
2022-10-28T11:33:51.691Z,25.40
2022-10-28T11:38:12.549Z,25.40
2022-10-28T11:42:46.158Z,25.30
2022-10-28T11:47:02.435Z,25.30
2022-10-28T11:51:29.083Z,25.40
2022-10-28T11:56:02.388Z,25.80
2022-10-28T12:00:19.019Z,26.20
2022-10-28T12:04:56.744Z,26.40
2022-10-28T12:09:26.498Z,26.60
2022-10-28T12:13:49.054Z,26.80
2022-10-28T12:18:14.999Z,26.70
2022-10-28T12:22:41.205Z,26.80
2022-10-28T12:26:50.468Z,27.00
2022-10-28T12:30:55.014Z,27.10
2022-10-28T12:35:27.314Z,27.20
2022-10-28T12:40:08.910Z,27.40
2022-10-28T12:54:39.641Z,27.10
2022-10-28T12:59:44.873Z,27.00
2022-10-28T13:03:45.859Z,27.00
2022-10-28T13:07:59.869Z,27.00
2022-10-28T13:12:14.998Z,27.00
2022-10-28T13:17:03.196Z,27.10
2022-10-28T13:21:29.772Z,27.20
2022-10-28T13:26:09.407Z,27.20
2022-10-28T13:30:23.590Z,27.30
2022-10-28T13:34:37.695Z,27.30
2022-10-28T13:38:41.486Z,27.30
2022-10-28T13:42:49.182Z,27.40
2022-10-28T13:47:03.737Z,27.40
2022-10-28T13:51:09.713Z,27.40
2022-10-28T13:55:27.836Z,27.20
2022-10-28T13:59:38.684Z,27.10
2022-10-28T14:03:52.333Z,27.10
2022-10-28T14:07:58.697Z,27.20
2022-10-28T14:12:13.440Z,27.20
2022-10-28T14:16:27.799Z,27.10
2022-10-28T14:20:40.909Z,27.00
2022-10-28T14:24:45.954Z,27.00
2022-10-28T14:28:51.048Z,26.90
2022-10-28T14:33:00.678Z,27.00
2022-10-28T14:37:55.653Z,27.00
2022-10-28T14:42:09.373Z,27.00
2022-10-28T14:46:27.646Z,27.00
2022-10-28T14:50:51.727Z,26.90
2022-10-28T14:54:57.744Z,26.70
2022-10-28T14:59:36.239Z,26.50
2022-10-28T15:03:39.473Z,26.40
2022-10-28T15:07:43.315Z,26.30
2022-10-28T15:11:50.551Z,26.20
2022-10-28T15:15:59.329Z,26.10
2022-10-28T15:20:23.795Z,26.10
2022-10-28T15:24:29.273Z,26.10
2022-10-28T15:28:37.336Z,26.10
2022-10-28T15:33:14.667Z,26.10
2022-10-28T15:38:03.724Z,26.10
2022-10-28T15:42:29.198Z,25.90
2022-10-28T15:46:34.231Z,25.70
2022-10-28T15:50:37.110Z,25.50
2022-10-28T15:54:40.679Z,25.20
2022-10-28T15:58:49.565Z,25.00
2022-10-28T16:02:58.378Z,24.80
2022-10-28T16:07:08.422Z,24.50
2022-10-28T16:11:20.322Z,24.10
2022-10-28T16:15:23.506Z,23.80
2022-10-28T16:19:30.724Z,23.30
2022-10-28T16:23:45.886Z,23.00
2022-10-28T16:27:53.040Z,22.70
2022-10-28T16:31:59.400Z,22.50
2022-10-28T16:36:03.372Z,22.30
2022-10-28T16:40:24.905Z,22.20
2022-10-28T16:44:47.082Z,22.10
2022-10-28T16:48:50.182Z,22.00
2022-10-28T16:52:55.130Z,22.00
2022-10-28T16:56:59.426Z,22.00
2022-10-28T17:01:02.481Z,21.90
2022-10-28T17:05:07.459Z,21.80
2022-10-28T17:09:10.403Z,21.70
2022-10-28T17:13:14.830Z,21.50
2022-10-28T17:17:18.302Z,21.50
2022-10-28T17:21:21.207Z,21.50
2022-10-28T17:25:25.113Z,21.40
2022-10-28T17:29:28.030Z,21.50
2022-10-28T17:33:30.996Z,21.50
2022-10-28T17:37:34.147Z,21.50
2022-10-28T17:41:37.005Z,21.50
2022-10-28T17:45:40.571Z,21.50
2022-10-28T17:49:43.408Z,21.50
2022-10-28T17:53:46.903Z,21.50
2022-10-28T17:57:49.897Z,21.50
2022-10-28T18:01:54.407Z,21.50
2022-10-28T18:06:01.567Z,21.60
2022-10-28T18:10:04.651Z,21.60
2022-10-28T18:14:07.616Z,21.50
2022-10-28T18:18:10.470Z,21.50
2022-10-28T18:22:13.414Z,21.50
2022-10-28T18:26:16.889Z,21.50
2022-10-28T18:30:19.706Z,21.50
2022-10-28T18:34:23.873Z,21.50
2022-10-28T18:38:26.992Z,21.50
2022-10-28T18:42:29.873Z,21.50
2022-10-28T18:46:35.487Z,21.40
2022-10-28T18:50:38.297Z,21.50
2022-10-28T18:54:41.200Z,21.50
2022-10-28T18:58:44.827Z,21.50
2022-10-28T19:02:48.211Z,21.50
2022-10-28T19:06:51.409Z,21.50
2022-10-28T19:10:58.482Z,21.50
2022-10-28T19:15:01.383Z,21.30
2022-10-28T19:19:05.544Z,21.10
2022-10-28T19:23:08.973Z,20.70
2022-10-28T19:27:12.467Z,20.50
2022-10-28T19:31:18.982Z,20.10
2022-10-28T19:35:21.943Z,20.00
2022-10-28T19:39:25.282Z,19.90
2022-10-28T19:43:28.274Z,19.60
2022-10-28T19:47:36.757Z,19.30
2022-10-28T19:52:02.856Z,19.00
2022-10-28T20:00:35.729Z,18.50
2022-10-28T20:04:41.871Z,18.20
2022-10-28T20:08:46.703Z,18.10
2022-10-28T20:12:49.574Z,18.00
2022-10-28T20:16:52.707Z,17.80
2022-10-28T20:20:55.651Z,17.60
2022-10-28T20:24:58.659Z,17.50
2022-10-28T20:29:03.133Z,17.40
2022-10-28T20:33:06.908Z,17.30
2022-10-28T20:37:10.329Z,17.10
2022-10-28T20:41:16.149Z,17.00
2022-10-28T20:45:20.192Z,16.90
2022-10-28T20:49:23.338Z,16.70
2022-10-28T20:54:04.176Z,16.60
2022-10-28T20:58:11.174Z,16.60
2022-10-28T21:07:26.942Z,16.70
2022-10-28T21:16:10.866Z,16.60
2022-10-28T21:20:14.073Z,16.60
2022-10-28T21:24:18.425Z,16.60
2022-10-28T21:28:22.819Z,16.60
2022-10-28T21:32:26.505Z,16.60
2022-10-28T21:36:32.181Z,16.60
2022-10-28T21:40:35.314Z,16.60
2022-10-28T21:44:38.219Z,16.50
2022-10-28T21:48:41.483Z,16.50
2022-10-28T21:52:44.477Z,16.50
2022-10-28T21:56:49.794Z,16.40
2022-10-28T22:00:52.713Z,16.40
2022-10-28T22:04:55.826Z,16.20
2022-10-28T22:09:03.465Z,16.10
2022-10-28T22:13:06.349Z,16.10
2022-10-28T22:17:09.728Z,16.00
2022-10-28T22:21:21.760Z,15.90
2022-10-28T22:25:24.703Z,15.90
2022-10-28T22:29:28.050Z,15.80
2022-10-28T22:33:32.431Z,15.70
2022-10-28T22:37:35.630Z,15.60
2022-10-28T22:41:38.836Z,15.60
2022-10-28T22:45:42.629Z,15.50
2022-10-28T22:49:46.776Z,15.50
2022-10-28T22:53:50.818Z,15.50
2022-10-28T22:57:54.476Z,15.40
2022-10-28T23:01:57.896Z,15.30
2022-10-28T23:06:00.852Z,15.20
2022-10-28T23:10:04.016Z,15.10
2022-10-28T23:14:07.058Z,15.00
2022-10-28T23:18:13.085Z,15.00
2022-10-28T23:22:17.208Z,15.00
2022-10-28T23:26:20.234Z,15.20
2022-10-28T23:30:25.319Z,15.30
2022-10-28T23:34:28.367Z,15.40
2022-10-28T23:38:32.555Z,15.50
2022-10-28T23:42:35.604Z,15.40
2022-10-28T23:46:38.681Z,15.30
2022-10-28T23:50:42.610Z,15.20
2022-10-28T23:54:45.641Z,15.20
2022-10-28T23:58:48.881Z,15.10
